sensor_id;sensor_type;location;lat;lon;timestamp;noise_LAeq;noise_LA_min;noise_LA_max;noise_LA01;noise_LA95
73638;Laerm;53743;51.100;5.874;2024-03-02T00:00:16;41.85;31.72;52.54;;
73638;Laerm;53743;51.100;5.874;2024-03-02T00:01:21;39.37;31.80;53.64;;
73638;Laerm;53743;51.100;5.874;2024-03-02T00:02:22;33.06;31.73;34.28;;
73638;Laerm;53743;51.100;5.874;2024-03-02T00:03:24;39.26;31.80;52.45;;
73638;Laerm;53743;51.100;5.874;2024-03-02T00:04:26;40.57;31.86;51.86;;
73638;Laerm;53743;51.100;5.874;2024-03-02T00:05:27;36.58;31.89;47.80;;
73638;Laerm;53743;51.100;5.874;2024-03-02T00:06:30;46.35;32.01;61.65;;
73638;Laerm;53743;51.100;5.874;2024-03-02T00:07:31;40.04;32.28;51.85;;
73638;Laerm;53743;51.100;5.874;2024-03-02T00:08:33;40.32;31.94;54.83;;
73638;Laerm;53743;51.100;5.874;2024-03-02T00:09:34;39.69;31.96;51.88;;
73638;Laerm;53743;51.100;5.874;2024-03-02T00:10:38;33.03;31.44;34.12;;
73638;Laerm;53743;51.100;5.874;2024-03-02T00:11:40;41.06;31.86;52.98;;
73638;Laerm;53743;51.100;5.874;2024-03-02T00:12:42;33.65;31.96;48.76;;
73638;Laerm;53743;51.100;5.874;2024-03-02T00:13:46;41.55;31.84;55.83;;
73638;Laerm;53743;51.100;5.874;2024-03-02T00:14:47;37.54;31.97;51.57;;
73638;Laerm;53743;51.100;5.874;2024-03-02T00:15:53;39.07;31.77;52.92;;
73638;Laerm;53743;51.100;5.874;2024-03-02T00:16:55;38.84;31.89;53.30;;
73638;Laerm;53743;51.100;5.874;2024-03-02T00:17:58;42.43;31.83;59.24;;
73638;Laerm;53743;51.100;5.874;2024-03-02T00:19:02;34.64;31.93;45.38;;
73638;Laerm;53743;51.100;5.874;2024-03-02T00:20:09;42.83;32.11;55.57;;
73638;Laerm;53743;51.100;5.874;2024-03-02T00:21:10;40.41;31.68;54.69;;
73638;Laerm;53743;51.100;5.874;2024-03-02T00:22:17;33.67;31.75;40.29;;
73638;Laerm;53743;51.100;5.874;2024-03-02T00:23:18;33.10;31.76;35.49;;
73638;Laerm;53743;51.100;5.874;2024-03-02T00:24:31;33.35;31.76;39.81;;
73638;Laerm;53743;51.100;5.874;2024-03-02T00:25:40;37.60;31.71;51.23;;
73638;Laerm;53743;51.100;5.874;2024-03-02T00:26:44;33.28;31.87;36.30;;
73638;Laerm;53743;51.100;5.874;2024-03-02T00:27:48;33.14;31.45;37.72;;
73638;Laerm;53743;51.100;5.874;2024-03-02T00:28:49;38.29;31.72;51.85;;
73638;Laerm;53743;51.100;5.874;2024-03-02T00:29:51;33.17;31.93;35.66;;
73638;Laerm;53743;51.100;5.874;2024-03-02T00:30:58;33.16;31.87;39.37;;
73638;Laerm;53743;51.100;5.874;2024-03-02T00:32:01;33.08;31.88;34.54;;
73638;Laerm;53743;51.100;5.874;2024-03-02T00:33:07;33.12;31.61;37.93;;
73638;Laerm;53743;51.100;5.874;2024-03-02T00:34:08;37.99;32.23;50.87;;
73638;Laerm;53743;51.100;5.874;2024-03-02T00:35:11;37.89;31.98;50.27;;
73638;Laerm;53743;51.100;5.874;2024-03-02T00:36:15;39.73;31.82;54.52;;
73638;Laerm;53743;51.100;5.874;2024-03-02T00:37:18;37.34;31.98;48.62;;
73638;Laerm;53743;51.100;5.874;2024-03-02T00:38:19;36.61;31.89;49.44;;
73638;Laerm;53743;51.100;5.874;2024-03-02T00:39:21;33.14;31.59;34.45;;
73638;Laerm;53743;51.100;5.874;2024-03-02T00:40:29;33.15;31.84;35.06;;
73638;Laerm;53743;51.100;5.874;2024-03-02T00:41:32;39.30;31.65;52.77;;
73638;Laerm;53743;51.100;5.874;2024-03-02T00:42:34;41.02;32.02;54.17;;
73638;Laerm;53743;51.100;5.874;2024-03-02T00:43:48;33.42;31.95;38.72;;
73638;Laerm;53743;51.100;5.874;2024-03-02T00:44:51;33.25;31.73;37.47;;
73638;Laerm;53743;51.100;5.874;2024-03-02T00:45:52;37.14;31.91;49.73;;
73638;Laerm;53743;51.100;5.874;2024-03-02T00:46:53;33.06;31.84;34.46;;
73638;Laerm;53743;51.100;5.874;2024-03-02T00:47:56;33.60;32.06;37.79;;
73638;Laerm;53743;51.100;5.874;2024-03-02T00:48:59;41.56;31.68;56.11;;
73638;Laerm;53743;51.100;5.874;2024-03-02T00:50:01;33.18;31.84;35.92;;
73638;Laerm;53743;51.100;5.874;2024-03-02T00:51:03;39.33;32.04;53.27;;
73638;Laerm;53743;51.100;5.874;2024-03-02T00:52:06;34.69;32.01;47.40;;
73638;Laerm;53743;51.100;5.874;2024-03-02T00:53:12;40.58;31.90;53.60;;
73638;Laerm;53743;51.100;5.874;2024-03-02T00:54:15;33.08;31.85;34.30;;
73638;Laerm;53743;51.100;5.874;2024-03-02T00:55:20;38.09;32.18;50.89;;
73638;Laerm;53743;51.100;5.874;2024-03-02T00:56:22;39.93;31.80;54.22;;
73638;Laerm;53743;51.100;5.874;2024-03-02T00:57:24;33.26;31.79;36.47;;
73638;Laerm;53743;51.100;5.874;2024-03-02T00:58:27;33.05;31.85;34.26;;
73638;Laerm;53743;51.100;5.874;2024-03-02T00:59:28;40.26;31.79;58.17;;
73638;Laerm;53743;51.100;5.874;2024-03-02T01:00:32;40.35;31.72;53.63;;
73638;Laerm;53743;51.100;5.874;2024-03-02T01:01:33;41.32;31.59;57.37;;
73638;Laerm;53743;51.100;5.874;2024-03-02T01:02:35;33.22;31.75;36.92;;
73638;Laerm;53743;51.100;5.874;2024-03-02T01:03:36;33.04;31.72;34.27;;
73638;Laerm;53743;51.100;5.874;2024-03-02T01:04:37;33.09;31.89;34.76;;
73638;Laerm;53743;51.100;5.874;2024-03-02T01:05:41;33.29;31.65;36.14;;
73638;Laerm;53743;51.100;5.874;2024-03-02T01:06:43;33.11;31.57;42.07;;
73638;Laerm;53743;51.100;5.874;2024-03-02T01:07:44;38.87;31.82;54.24;;
73638;Laerm;53743;51.100;5.874;2024-03-02T01:08:47;33.06;31.94;34.70;;
73638;Laerm;53743;51.100;5.874;2024-03-02T01:09:51;33.04;31.60;34.54;;
73638;Laerm;53743;51.100;5.874;2024-03-02T01:10:53;33.80;31.88;44.67;;
73638;Laerm;53743;51.100;5.874;2024-03-02T01:11:55;33.24;31.61;42.08;;
73638;Laerm;53743;51.100;5.874;2024-03-02T01:12:57;33.01;31.63;37.77;;
73638;Laerm;53743;51.100;5.874;2024-03-02T01:13:58;33.07;31.76;43.51;;
73638;Laerm;53743;51.100;5.874;2024-03-02T01:15:00;32.92;31.24;38.90;;
73638;Laerm;53743;51.100;5.874;2024-03-02T01:16:02;33.01;31.49;38.19;;
73638;Laerm;53743;51.100;5.874;2024-03-02T01:17:05;36.34;31.58;49.68;;
73638;Laerm;53743;51.100;5.874;2024-03-02T01:18:06;32.97;31.67;40.10;;
73638;Laerm;53743;51.100;5.874;2024-03-02T01:19:07;32.89;31.38;34.05;;
73638;Laerm;53743;51.100;5.874;2024-03-02T01:20:11;32.94;31.69;34.25;;
73638;Laerm;53743;51.100;5.874;2024-03-02T01:21:12;41.14;31.82;55.78;;
73638;Laerm;53743;51.100;5.874;2024-03-02T01:22:14;32.97;31.35;34.16;;
73638;Laerm;53743;51.100;5.874;2024-03-02T01:23:15;38.35;31.98;51.94;;
73638;Laerm;53743;51.100;5.874;2024-03-02T01:24:19;33.02;31.72;34.31;;
73638;Laerm;53743;51.100;5.874;2024-03-02T01:25:20;33.01;31.77;34.20;;
73638;Laerm;53743;51.100;5.874;2024-03-02T01:26:22;33.05;31.62;34.28;;
73638;Laerm;53743;51.100;5.874;2024-03-02T01:27:23;33.13;31.57;35.16;;
73638;Laerm;53743;51.100;5.874;2024-03-02T01:28:25;42.98;31.81;54.99;;
73638;Laerm;53743;51.100;5.874;2024-03-02T01:29:26;33.08;31.62;34.24;;
73638;Laerm;53743;51.100;5.874;2024-03-02T01:30:28;33.09;31.83;35.64;;
73638;Laerm;53743;51.100;5.874;2024-03-02T01:31:29;33.15;31.85;36.77;;
73638;Laerm;53743;51.100;5.874;2024-03-02T01:32:30;39.67;32.02;53.59;;
73638;Laerm;53743;51.100;5.874;2024-03-02T01:33:32;33.14;31.48;34.37;;
73638;Laerm;53743;51.100;5.874;2024-03-02T01:34:34;33.19;31.93;34.59;;
73638;Laerm;53743;51.100;5.874;2024-03-02T01:35:35;33.15;31.93;34.52;;
73638;Laerm;53743;51.100;5.874;2024-03-02T01:36:36;44.94;32.13;62.74;;
73638;Laerm;53743;51.100;5.874;2024-03-02T01:37:38;33.33;32.02;34.75;;
73638;Laerm;53743;51.100;5.874;2024-03-02T01:38:39;33.38;32.07;34.87;;
73638;Laerm;53743;51.100;5.874;2024-03-02T01:39:42;33.47;32.23;34.74;;
73638;Laerm;53743;51.100;5.874;2024-03-02T01:40:43;33.51;32.27;34.64;;
73638;Laerm;53743;51.100;5.874;2024-03-02T01:41:46;33.58;32.19;36.84;;
73638;Laerm;53743;51.100;5.874;2024-03-02T01:42:47;33.58;32.21;34.96;;
73638;Laerm;53743;51.100;5.874;2024-03-02T01:43:49;33.51;32.11;35.09;;
73638;Laerm;53743;51.100;5.874;2024-03-02T01:44:50;33.48;32.10;34.70;;
73638;Laerm;53743;51.100;5.874;2024-03-02T01:45:52;33.47;32.20;34.75;;
73638;Laerm;53743;51.100;5.874;2024-03-02T01:46:54;41.08;32.20;57.32;;
73638;Laerm;53743;51.100;5.874;2024-03-02T01:47:56;33.44;31.99;34.65;;
73638;Laerm;53743;51.100;5.874;2024-03-02T01:48:57;33.43;32.10;34.61;;
73638;Laerm;53743;51.100;5.874;2024-03-02T01:50:00;40.46;32.21;54.40;;
73638;Laerm;53743;51.100;5.874;2024-03-02T01:51:01;33.41;32.02;34.69;;
73638;Laerm;53743;51.100;5.874;2024-03-02T01:52:02;33.43;32.16;34.71;;
73638;Laerm;53743;51.100;5.874;2024-03-02T01:53:05;33.36;32.11;34.50;;
73638;Laerm;53743;51.100;5.874;2024-03-02T01:54:06;33.35;32.08;34.70;;
73638;Laerm;53743;51.100;5.874;2024-03-02T01:55:10;33.37;32.06;34.77;;
73638;Laerm;53743;51.100;5.874;2024-03-02T01:56:13;33.35;31.94;34.97;;
73638;Laerm;53743;51.100;5.874;2024-03-02T01:57:15;33.33;31.93;34.81;;
73638;Laerm;53743;51.100;5.874;2024-03-02T01:58:16;33.31;32.10;34.51;;
73638;Laerm;53743;51.100;5.874;2024-03-02T01:59:18;33.28;31.95;34.62;;
73638;Laerm;53743;51.100;5.874;2024-03-02T02:00:21;38.57;31.46;52.74;;
73638;Laerm;53743;51.100;5.874;2024-03-02T02:01:22;37.92;31.94;51.85;;
73638;Laerm;53743;51.100;5.874;2024-03-02T02:02:24;33.25;32.09;34.50;;
73638;Laerm;53743;51.100;5.874;2024-03-02T02:03:25;33.23;31.90;34.50;;
73638;Laerm;53743;51.100;5.874;2024-03-02T02:04:27;33.22;31.81;34.55;;
73638;Laerm;53743;51.100;5.874;2024-03-02T02:05:28;33.23;31.89;34.56;;
73638;Laerm;53743;51.100;5.874;2024-03-02T02:06:32;33.20;31.97;34.33;;
73638;Laerm;53743;51.100;5.874;2024-03-02T02:07:33;39.85;32.01;54.44;;
73638;Laerm;53743;51.100;5.874;2024-03-02T02:08:36;33.19;31.98;34.54;;
73638;Laerm;53743;51.100;5.874;2024-03-02T02:09:38;33.15;31.76;34.54;;
73638;Laerm;53743;51.100;5.874;2024-03-02T02:10:41;33.28;31.84;38.13;;
73638;Laerm;53743;51.100;5.874;2024-03-02T02:11:43;33.14;31.87;34.48;;
73638;Laerm;53743;51.100;5.874;2024-03-02T02:12:44;33.15;31.75;34.63;;
73638;Laerm;53743;51.100;5.874;2024-03-02T02:13:46;33.16;31.81;35.69;;
73638;Laerm;53743;51.100;5.874;2024-03-02T02:14:48;33.09;31.79;34.33;;
73638;Laerm;53743;51.100;5.874;2024-03-02T02:15:49;33.01;31.57;34.22;;
73638;Laerm;53743;51.100;5.874;2024-03-02T02:16:53;32.99;31.36;34.47;;
73638;Laerm;53743;51.100;5.874;2024-03-02T02:17:55;32.96;31.47;34.19;;
73638;Laerm;53743;51.100;5.874;2024-03-02T02:18:56;32.94;31.68;34.21;;
73638;Laerm;53743;51.100;5.874;2024-03-02T02:19:58;32.93;31.59;34.10;;
73638;Laerm;53743;51.100;5.874;2024-03-02T02:20:59;32.91;31.78;34.76;;
73638;Laerm;53743;51.100;5.874;2024-03-02T02:22:02;32.95;31.59;34.43;;
73638;Laerm;53743;51.100;5.874;2024-03-02T02:23:04;32.89;31.29;34.01;;
73638;Laerm;53743;51.100;5.874;2024-03-02T02:24:08;32.88;31.63;34.13;;
73638;Laerm;53743;51.100;5.874;2024-03-02T02:25:09;32.91;31.53;34.39;;
73638;Laerm;53743;51.100;5.874;2024-03-02T02:26:10;32.89;31.50;34.17;;
73638;Laerm;53743;51.100;5.874;2024-03-02T02:27:12;32.92;31.74;34.03;;
73638;Laerm;53743;51.100;5.874;2024-03-02T02:28:16;39.27;31.65;52.73;;
73638;Laerm;53743;51.100;5.874;2024-03-02T02:29:18;32.90;31.46;34.27;;
73638;Laerm;53743;51.100;5.874;2024-03-02T02:30:20;32.91;31.42;34.21;;
73638;Laerm;53743;51.100;5.874;2024-03-02T02:31:21;33.21;31.59;39.36;;
73638;Laerm;53743;51.100;5.874;2024-03-02T02:32:23;37.28;31.71;50.09;;
73638;Laerm;53743;51.100;5.874;2024-03-02T02:33:24;32.90;31.61;34.14;;
73638;Laerm;53743;51.100;5.874;2024-03-02T02:34:26;32.87;31.34;34.05;;
73638;Laerm;53743;51.100;5.874;2024-03-02T02:35:27;32.85;31.63;34.50;;
73638;Laerm;53743;51.100;5.874;2024-03-02T02:36:30;32.87;31.68;34.70;;
73638;Laerm;53743;51.100;5.874;2024-03-02T02:37:33;42.33;31.70;54.79;;
73638;Laerm;53743;51.100;5.874;2024-03-02T02:38:39;33.25;31.63;40.42;;
73638;Laerm;53743;51.100;5.874;2024-03-02T02:39:42;32.82;31.01;34.46;;
73638;Laerm;53743;51.100;5.874;2024-03-02T02:40:43;32.91;31.53;35.97;;
73638;Laerm;53743;51.100;5.874;2024-03-02T02:41:45;33.03;31.73;38.76;;
73638;Laerm;53743;51.100;5.874;2024-03-02T02:42:46;32.83;31.43;34.45;;
73638;Laerm;53743;51.100;5.874;2024-03-02T02:43:48;32.84;31.71;34.11;;
73638;Laerm;53743;51.100;5.874;2024-03-02T02:44:49;32.84;31.69;34.20;;
73638;Laerm;53743;51.100;5.874;2024-03-02T02:45:51;32.82;31.55;34.13;;
73638;Laerm;53743;51.100;5.874;2024-03-02T02:46:51;32.84;31.58;34.01;;
73638;Laerm;53743;51.100;5.874;2024-03-02T02:47:53;32.84;31.46;33.96;;
73638;Laerm;53743;51.100;5.874;2024-03-02T02:48:54;32.85;31.73;34.16;;
73638;Laerm;53743;51.100;5.874;2024-03-02T02:49:56;32.84;31.57;34.20;;
73638;Laerm;53743;51.100;5.874;2024-03-02T02:50:57;32.88;31.75;34.06;;
73638;Laerm;53743;51.100;5.874;2024-03-02T02:51:59;39.41;31.43;54.03;;
73638;Laerm;53743;51.100;5.874;2024-03-02T02:53:02;32.88;31.48;34.16;;
73638;Laerm;53743;51.100;5.874;2024-03-02T02:54:04;32.88;31.66;34.12;;
73638;Laerm;53743;51.100;5.874;2024-03-02T02:55:06;32.85;31.35;34.31;;
73638;Laerm;53743;51.100;5.874;2024-03-02T02:56:09;32.86;31.40;34.36;;
73638;Laerm;53743;51.100;5.874;2024-03-02T02:57:10;32.83;31.61;33.99;;
73638;Laerm;53743;51.100;5.874;2024-03-02T02:58:12;32.82;31.67;34.44;;
73638;Laerm;53743;51.100;5.874;2024-03-02T02:59:13;32.82;31.59;34.27;;
73638;Laerm;53743;51.100;5.874;2024-03-02T03:00:16;32.94;31.56;34.31;;
73638;Laerm;53743;51.100;5.874;2024-03-02T03:01:19;32.77;31.49;34.02;;
73638;Laerm;53743;51.100;5.874;2024-03-02T03:02:21;32.79;31.54;33.99;;
73638;Laerm;53743;51.100;5.874;2024-03-02T03:03:22;32.78;31.42;34.03;;
73638;Laerm;53743;51.100;5.874;2024-03-02T03:04:23;35.58;31.59;45.76;;
73638;Laerm;53743;51.100;5.874;2024-03-02T03:05:25;32.73;31.31;34.12;;
73638;Laerm;53743;51.100;5.874;2024-03-02T03:06:26;32.70;31.34;34.03;;
73638;Laerm;53743;51.100;5.874;2024-03-02T03:07:28;32.67;31.39;33.99;;
73638;Laerm;53743;51.100;5.874;2024-03-02T03:08:30;32.70;31.37;33.93;;
73638;Laerm;53743;51.100;5.874;2024-03-02T03:09:31;37.34;31.49;52.80;;
73638;Laerm;53743;51.100;5.874;2024-03-02T03:10:33;32.64;31.46;34.03;;
73638;Laerm;53743;51.100;5.874;2024-03-02T03:11:34;32.64;31.45;33.87;;
73638;Laerm;53743;51.100;5.874;2024-03-02T03:12:36;32.63;31.41;33.68;;
73638;Laerm;53743;51.100;5.874;2024-03-02T03:13:38;32.64;31.45;34.00;;
73638;Laerm;53743;51.100;5.874;2024-03-02T03:14:40;32.63;31.40;33.82;;
73638;Laerm;53743;51.100;5.874;2024-03-02T03:15:42;32.97;31.11;36.86;;
73638;Laerm;53743;51.100;5.874;2024-03-02T03:16:46;38.76;31.54;53.09;;
73638;Laerm;53743;51.100;5.874;2024-03-02T03:17:49;40.45;31.41;56.41;;
73638;Laerm;53743;51.100;5.874;2024-03-02T03:18:51;32.60;31.11;33.90;;
73638;Laerm;53743;51.100;5.874;2024-03-02T03:19:54;32.60;31.31;33.86;;
73638;Laerm;53743;51.100;5.874;2024-03-02T03:20:55;32.60;31.36;33.80;;
73638;Laerm;53743;51.100;5.874;2024-03-02T03:21:56;32.61;31.24;33.66;;
73638;Laerm;53743;51.100;5.874;2024-03-02T03:22:58;32.60;31.31;34.01;;
73638;Laerm;53743;51.100;5.874;2024-03-02T03:24:00;32.62;31.16;33.93;;
73638;Laerm;53743;51.100;5.874;2024-03-02T03:25:04;32.62;31.34;33.80;;
73638;Laerm;53743;51.100;5.874;2024-03-02T03:26:05;32.63;31.25;33.75;;
73638;Laerm;53743;51.100;5.874;2024-03-02T03:27:07;32.61;31.31;33.98;;
73638;Laerm;53743;51.100;5.874;2024-03-02T03:28:08;32.62;31.26;33.97;;
73638;Laerm;53743;51.100;5.874;2024-03-02T03:29:10;32.62;31.32;33.78;;
73638;Laerm;53743;51.100;5.874;2024-03-02T03:30:12;32.63;31.23;33.80;;
73638;Laerm;53743;51.100;5.874;2024-03-02T03:31:14;32.65;31.38;33.97;;
73638;Laerm;53743;51.100;5.874;2024-03-02T03:32:15;32.65;31.32;33.93;;
73638;Laerm;53743;51.100;5.874;2024-03-02T03:33:17;32.66;31.31;33.73;;
73638;Laerm;53743;51.100;5.874;2024-03-02T03:34:18;32.64;31.32;33.80;;
73638;Laerm;53743;51.100;5.874;2024-03-02T03:35:20;32.66;31.39;33.92;;
73638;Laerm;53743;51.100;5.874;2024-03-02T03:36:21;32.66;31.45;33.94;;
73638;Laerm;53743;51.100;5.874;2024-03-02T03:37:23;41.68;31.65;61.21;;
73638;Laerm;53743;51.100;5.874;2024-03-02T03:38:25;32.69;31.20;33.92;;
73638;Laerm;53743;51.100;5.874;2024-03-02T03:39:28;32.67;31.21;33.89;;
73638;Laerm;53743;51.100;5.874;2024-03-02T03:40:29;40.11;31.30;54.83;;
73638;Laerm;53743;51.100;5.874;2024-03-02T03:41:31;39.92;31.17;54.32;;
73638;Laerm;53743;51.100;5.874;2024-03-02T03:42:32;32.72;31.44;33.96;;
73638;Laerm;53743;51.100;5.874;2024-03-02T03:43:35;32.67;31.43;33.78;;
73638;Laerm;53743;51.100;5.874;2024-03-02T03:44:36;32.68;31.36;33.81;;
73638;Laerm;53743;51.100;5.874;2024-03-02T03:45:39;32.76;31.29;34.39;;
73638;Laerm;53743;51.100;5.874;2024-03-02T03:46:40;40.76;31.45;54.66;;
73638;Laerm;53743;51.100;5.874;2024-03-02T03:47:42;32.71;31.57;33.80;;
73638;Laerm;53743;51.100;5.874;2024-03-02T03:48:44;44.49;31.58;58.98;;
73638;Laerm;53743;51.100;5.874;2024-03-02T03:49:46;36.07;31.57;48.01;;
73638;Laerm;53743;51.100;5.874;2024-03-02T03:50:47;36.12;31.27;50.34;;
73638;Laerm;53743;51.100;5.874;2024-03-02T03:51:49;33.35;31.25;44.88;;
73638;Laerm;53743;51.100;5.874;2024-03-02T03:52:50;32.72;31.38;34.20;;
73638;Laerm;53743;51.100;5.874;2024-03-02T03:53:51;32.72;31.52;34.09;;
73638;Laerm;53743;51.100;5.874;2024-03-02T03:54:54;32.80;31.61;34.62;;
73638;Laerm;53743;51.100;5.874;2024-03-02T03:55:55;32.79;31.59;35.68;;
73638;Laerm;53743;51.100;5.874;2024-03-02T03:56:57;32.73;31.12;33.95;;
73638;Laerm;53743;51.100;5.874;2024-03-02T03:57:58;38.65;31.78;52.99;;
73638;Laerm;53743;51.100;5.874;2024-03-02T03:59:00;39.19;30.84;54.46;;
73638;Laerm;53743;51.100;5.874;2024-03-02T04:00:04;38.86;31.56;52.50;;
73638;Laerm;53743;51.100;5.874;2024-03-02T04:01:13;32.82;31.48;34.18;;
73638;Laerm;53743;51.100;5.874;2024-03-02T04:02:14;39.83;31.67;54.36;;
73638;Laerm;53743;51.100;5.874;2024-03-02T04:03:16;40.64;31.74;55.40;;
73638;Laerm;53743;51.100;5.874;2024-03-02T04:04:17;37.86;31.42;52.61;;
73638;Laerm;53743;51.100;5.874;2024-03-02T04:05:19;32.78;31.50;33.84;;
73638;Laerm;53743;51.100;5.874;2024-03-02T04:06:20;32.77;31.54;33.91;;
73638;Laerm;53743;51.100;5.874;2024-03-02T04:07:22;32.78;31.53;33.84;;
73638;Laerm;53743;51.100;5.874;2024-03-02T04:08:23;32.78;31.52;33.85;;
73638;Laerm;53743;51.100;5.874;2024-03-02T04:09:25;32.79;31.41;33.89;;
73638;Laerm;53743;51.100;5.874;2024-03-02T04:10:27;32.76;31.28;34.07;;
73638;Laerm;53743;51.100;5.874;2024-03-02T04:11:31;32.81;31.57;34.45;;
73638;Laerm;53743;51.100;5.874;2024-03-02T04:12:32;37.28;31.51;50.32;;
73638;Laerm;53743;51.100;5.874;2024-03-02T04:13:34;32.77;31.26;34.18;;
73638;Laerm;53743;51.100;5.874;2024-03-02T04:14:35;32.81;31.46;34.11;;
73638;Laerm;53743;51.100;5.874;2024-03-02T04:15:38;36.27;31.46;48.60;;
73638;Laerm;53743;51.100;5.874;2024-03-02T04:16:41;38.80;31.28;53.37;;
73638;Laerm;53743;51.100;5.874;2024-03-02T04:17:42;32.82;31.58;34.27;;
73638;Laerm;53743;51.100;5.874;2024-03-02T04:18:44;32.88;31.45;41.25;;
73638;Laerm;53743;51.100;5.874;2024-03-02T04:19:45;32.97;31.71;42.85;;
73638;Laerm;53743;51.100;5.874;2024-03-02T04:20:47;32.93;31.46;35.81;;
73638;Laerm;53743;51.100;5.874;2024-03-02T04:21:48;32.93;31.59;36.39;;
73638;Laerm;53743;51.100;5.874;2024-03-02T04:22:49;32.93;31.62;34.16;;
73638;Laerm;53743;51.100;5.874;2024-03-02T04:23:50;32.94;31.38;34.36;;
73638;Laerm;53743;51.100;5.874;2024-03-02T04:24:52;32.95;31.45;39.14;;
73638;Laerm;53743;51.100;5.874;2024-03-02T04:25:56;32.98;31.77;34.47;;
73638;Laerm;53743;51.100;5.874;2024-03-02T04:26:57;40.07;31.78;54.19;;
73638;Laerm;53743;51.100;5.874;2024-03-02T04:27:59;35.75;31.57;46.94;;
73638;Laerm;53743;51.100;5.874;2024-03-02T04:29:00;37.11;31.60;50.21;;
73638;Laerm;53743;51.100;5.874;2024-03-02T04:30:04;42.63;31.62;57.30;;
73638;Laerm;53743;51.100;5.874;2024-03-02T04:31:06;33.16;31.66;37.64;;
73638;Laerm;53743;51.100;5.874;2024-03-02T04:32:08;33.04;31.72;34.82;;
73638;Laerm;53743;51.100;5.874;2024-03-02T04:33:09;42.21;31.70;57.71;;
73638;Laerm;53743;51.100;5.874;2024-03-02T04:34:11;33.02;31.52;34.87;;
73638;Laerm;53743;51.100;5.874;2024-03-02T04:35:12;32.99;31.57;35.05;;
73638;Laerm;53743;51.100;5.874;2024-03-02T04:36:14;32.94;31.71;34.26;;
73638;Laerm;53743;51.100;5.874;2024-03-02T04:37:16;33.01;31.54;34.73;;
73638;Laerm;53743;51.100;5.874;2024-03-02T04:38:17;33.04;31.82;35.64;;
73638;Laerm;53743;51.100;5.874;2024-03-02T04:39:19;33.04;31.77;35.56;;
73638;Laerm;53743;51.100;5.874;2024-03-02T04:40:20;33.10;31.70;37.31;;
73638;Laerm;53743;51.100;5.874;2024-03-02T04:41:23;39.40;31.63;51.34;;
73638;Laerm;53743;51.100;5.874;2024-03-02T04:42:25;38.73;31.85;50.19;;
73638;Laerm;53743;51.100;5.874;2024-03-02T04:43:26;39.81;31.79;51.33;;
73638;Laerm;53743;51.100;5.874;2024-03-02T04:44:28;33.39;31.77;38.92;;
73638;Laerm;53743;51.100;5.874;2024-03-02T04:45:29;33.05;31.70;35.96;;
73638;Laerm;53743;51.100;5.874;2024-03-02T04:46:31;40.65;31.46;55.93;;
73638;Laerm;53743;51.100;5.874;2024-03-02T04:47:32;39.29;31.40;56.64;;
73638;Laerm;53743;51.100;5.874;2024-03-02T04:48:34;32.96;31.57;34.81;;
73638;Laerm;53743;51.100;5.874;2024-03-02T04:49:35;33.01;31.53;36.00;;
73638;Laerm;53743;51.100;5.874;2024-03-02T04:50:37;36.77;31.53;49.85;;
73638;Laerm;53743;51.100;5.874;2024-03-02T04:51:38;33.00;31.69;36.33;;
73638;Laerm;53743;51.100;5.874;2024-03-02T04:52:40;32.99;31.53;34.97;;
73638;Laerm;53743;51.100;5.874;2024-03-02T04:53:41;33.02;31.67;35.25;;
73638;Laerm;53743;51.100;5.874;2024-03-02T04:54:43;32.98;31.47;34.83;;
73638;Laerm;53743;51.100;5.874;2024-03-02T04:55:59;32.98;31.51;35.02;;
73638;Laerm;53743;51.100;5.874;2024-03-02T04:57:29;33.07;31.53;36.08;;
73638;Laerm;53743;51.100;5.874;2024-03-02T04:58:30;40.70;31.76;55.35;;
73638;Laerm;53743;51.100;5.874;2024-03-02T04:59:32;32.93;31.56;34.99;;
73638;Laerm;53743;51.100;5.874;2024-03-02T05:00:33;32.93;31.82;34.16;;
73638;Laerm;53743;51.100;5.874;2024-03-02T05:01:35;32.90;31.39;34.18;;
73638;Laerm;53743;51.100;5.874;2024-03-02T05:02:36;32.87;31.37;34.33;;
73638;Laerm;53743;51.100;5.874;2024-03-02T05:03:38;32.90;31.24;34.25;;
73638;Laerm;53743;51.100;5.874;2024-03-02T05:04:39;32.91;31.76;34.42;;
73638;Laerm;53743;51.100;5.874;2024-03-02T05:05:42;32.87;31.75;34.46;;
73638;Laerm;53743;51.100;5.874;2024-03-02T05:06:43;43.10;31.54;59.15;;
73638;Laerm;53743;51.100;5.874;2024-03-02T05:07:51;34.20;31.72;45.65;;
73638;Laerm;53743;51.100;5.874;2024-03-02T05:08:52;41.99;31.84;57.25;;
73638;Laerm;53743;51.100;5.874;2024-03-02T05:09:54;41.41;31.97;54.84;;
73638;Laerm;53743;51.100;5.874;2024-03-02T05:10:55;33.10;31.59;37.73;;
73638;Laerm;53743;51.100;5.874;2024-03-02T05:12:17;33.19;31.57;37.63;;
73638;Laerm;53743;51.100;5.874;2024-03-02T05:13:38;41.92;31.78;55.91;;
73638;Laerm;53743;51.100;5.874;2024-03-02T05:14:40;37.20;31.58;48.85;;
73638;Laerm;53743;51.100;5.874;2024-03-02T05:15:41;38.40;31.93;51.90;;
73638;Laerm;53743;51.100;5.874;2024-03-02T05:16:44;33.51;31.68;41.93;;
73638;Laerm;53743;51.100;5.874;2024-03-02T05:17:45;38.55;31.72;51.14;;
73638;Laerm;53743;51.100;5.874;2024-03-02T05:18:46;33.20;31.82;36.35;;
73638;Laerm;53743;51.100;5.874;2024-03-02T05:19:48;35.47;31.62;47.01;;
73638;Laerm;53743;51.100;5.874;2024-03-02T05:20:49;33.05;31.43;36.78;;
73638;Laerm;53743;51.100;5.874;2024-03-02T05:21:50;33.11;31.55;36.80;;
73638;Laerm;53743;51.100;5.874;2024-03-02T05:22:52;40.70;31.72;54.71;;
73638;Laerm;53743;51.100;5.874;2024-03-02T05:23:54;33.02;31.77;35.34;;
73638;Laerm;53743;51.100;5.874;2024-03-02T05:24:55;39.71;31.76;56.60;;
73638;Laerm;53743;51.100;5.874;2024-03-02T05:25:57;35.08;31.78;43.83;;
73638;Laerm;53743;51.100;5.874;2024-03-02T05:26:58;41.36;31.78;55.21;;
73638;Laerm;53743;51.100;5.874;2024-03-02T05:28:00;33.11;31.39;37.77;;
73638;Laerm;53743;51.100;5.874;2024-03-02T05:29:04;37.88;31.74;51.12;;
73638;Laerm;53743;51.100;5.874;2024-03-02T05:30:07;39.00;31.93;51.75;;
73638;Laerm;53743;51.100;5.874;2024-03-02T05:31:10;38.28;31.39;55.55;;
73638;Laerm;53743;51.100;5.874;2024-03-02T05:32:13;38.56;31.73;51.12;;
73638;Laerm;53743;51.100;5.874;2024-03-02T05:33:14;37.56;31.81;49.96;;
73638;Laerm;53743;51.100;5.874;2024-03-02T05:34:15;36.55;31.31;49.25;;
73638;Laerm;53743;51.100;5.874;2024-03-02T05:35:17;40.14;31.70;53.62;;
73638;Laerm;53743;51.100;5.874;2024-03-02T05:36:19;33.37;31.67;37.69;;
73638;Laerm;53743;51.100;5.874;2024-03-02T05:37:21;38.84;31.58;51.86;;
73638;Laerm;53743;51.100;5.874;2024-03-02T05:38:23;33.81;31.64;39.82;;
73638;Laerm;53743;51.100;5.874;2024-03-02T05:39:24;42.59;31.45;57.70;;
73638;Laerm;53743;51.100;5.874;2024-03-02T05:40:26;33.83;31.51;41.20;;
73638;Laerm;53743;51.100;5.874;2024-03-02T05:41:27;41.97;31.94;54.33;;
73638;Laerm;53743;51.100;5.874;2024-03-02T05:42:29;40.92;31.92;53.33;;
73638;Laerm;53743;51.100;5.874;2024-03-02T05:43:30;38.00;31.88;51.38;;
73638;Laerm;53743;51.100;5.874;2024-03-02T05:44:32;33.52;31.70;39.38;;
73638;Laerm;53743;51.100;5.874;2024-03-02T05:45:34;33.08;31.57;35.11;;
73638;Laerm;53743;51.100;5.874;2024-03-02T05:46:35;37.67;31.70;50.52;;
73638;Laerm;53743;51.100;5.874;2024-03-02T05:47:37;38.46;31.50;52.54;;
73638;Laerm;53743;51.100;5.874;2024-03-02T05:48:39;40.24;31.59;53.66;;